カシュガル空港の過去48時間の天気

カシュガル空港 (Kashi)

現在時刻: 9/28 17:46 CST (9/28 09:46 UTC) 以下の時間は現地時間です。

過去48時間のMETAR気象情報
時間 風向 風速(m/s) 視程 気温(℃) 湿度(%) 気圧(hPa) 天気現象
28 17:00 東南東 3 2300m 20 30 1015 風塵
28 16:00 2 2300m 19 32 1016 風塵
28 15:00 東南東 3 2300m 19 30 1017 風塵
28 14:00 南東 3 2500m 18 34 1017 風塵
28 13:00 2 2500m 18 37 1018 風塵
28 12:00 2 2500m 17 36 1018 風塵
28 11:00 不定 1 3200m 16 45 1018 風塵
28 10:00 北東 1 3200m 14 55 1017 風塵
28 09:00 北東 2 3500m 14 55 1016 風塵
28 08:00 不定 1 2600m 16 39 1016 風塵
28 07:00 不定 2 2600m 16 36 1016 風塵
28 06:00 北北東 3 3100m 16 39 1016 風塵
28 05:00 北東 3 3700m 16 42 1016 風塵
28 04:00 北東 2 3700m 17 36 1016 風塵
28 03:00 北北東 2 3700m 17 36 1016
28 02:00 北東 2 4100m 18 34 1016
28 01:00 不定 1 4100m 18 39 1016
28 00:00 不定 1 4000m 19 32 1016
27 23:00 不定 2 3200m 18 39 1015 風塵
27 22:00 不定 1 3200m 19 35 1015 風塵
27 21:00 東北東 2 3200m 19 43 1014 風塵
27 20:00 南南東 3 3200m 20 30 1013 風塵
27 19:00 南南東 3 3200m 21 28 1013 風塵
27 18:00 3 2800m 21 28 1012 風塵
27 17:00 3 2800m 19 32 1013 風塵
27 16:00 南東 3 2800m 20 28 1013 風塵
27 15:00 不定 1 4800m 20 26 1014 風塵
27 14:00 不定 2 4200m 17 36 1014 風塵
27 13:00 3 2200m 16 45 1015 弱いしゅう雨 風塵
27 12:00 北北西 2 2200m 18 28 1015 風塵
27 11:00 東南東 2 2500m 17 29 1015 風塵
27 10:00 不定 1 2800m 17 32 1014 風塵
27 09:00 東北東 3 4000m 17 32 1013 風塵
27 08:00 東北東 5 4500m 17 32 1012 風塵
27 07:00 北北東 3 4500m 18 30 1012 風塵
27 06:00 北北東 2 4500m 18 30 1011 風塵
27 05:00 北東 4 5000m 18 32 1010 風塵
27 04:00 北北東 5 5000m 19 30 1010 風塵
27 03:00 北東 4 6000m 19 30 1010
27 02:00 不定 2 10km以上 20 24 1010
27 01:00 5 10km以上 22 17 1009
27 00:00 3 7000m 22 20 1009
26 23:00 2 8000m 22 19 1008
26 22:00 不定 2 8000m 23 19 1008
26 21:00 静穏 0 10km以上 24 14 1007
26 20:00 南東 2 10km以上 25 14 1006
26 19:00 南東 3 10km以上 26 13 1005
26 18:00 東南東 4 10km以上 27 13 1005
ZWSH 280900Z 11003MPS 080V140 2300 DU NSC 20/02 Q1015 NOSIG
ZWSH 280800Z 08002MPS 040V170 2300 DU NSC 19/02 Q1016 NOSIG
ZWSH 280700Z 11003MPS 070V150 2300 DU NSC 19/01 Q1017 NOSIG
ZWSH 280600Z 13003MPS 090V170 2500 DU FEW040 18/02 Q1017 NOSIG
ZWSH 280500Z 09002MPS 060V140 2500 DU FEW040 18/03 Q1018 NOSIG
ZWSH 280400Z 08002MPS 040V130 2500 DU FEW040 17/02 Q1018 NOSIG
ZWSH 280300Z VRB01MPS 3200 DU FEW040 16/04 Q1018 NOSIG
ZWSH 280200Z 05001MPS 3200 DU FEW040 14/05 Q1017 NOSIG
ZWSH 280100Z 05002MPS 3500 DU FEW040 14/05 Q1016 NOSIG
ZWSH 280000Z VRB01MPS 2600 DU SCT040 16/02 Q1016 NOSIG
ZWSH 272300Z VRB02MPS 2600 DU SCT040 16/01 Q1016 NOSIG
ZWSH 272200Z 03003MPS 3100 DU SCT040 16/02 Q1016 NOSIG
ZWSH 272100Z 05003MPS 3700 DU SCT040 16/03 Q1016 NOSIG
ZWSH 272000Z 05002MPS 3700 DU SCT040 17/02 Q1016 NOSIG
ZWSH 271900Z AUTO 03002MPS 3700 // ////// 17/02 Q1016
ZWSH 271800Z AUTO 05002MPS 4100 // ////// 18/02 Q1016
ZWSH 271700Z AUTO VRB01MPS 4100 // ////// 18/04 Q1016
ZWSH 271600Z AUTO VRB01MPS 4000 // ////// 19/02 Q1016
ZWSH 271500Z VRB02MPS 3200 DU SCT040 18/04 Q1015 NOSIG
ZWSH 271400Z VRB01MPS 3200 DU FEW040 19/03 Q1015 NOSIG
ZWSH 271300Z 06002MPS 3200 DU FEW040 19/06 Q1014 NOSIG
ZWSH 271200Z 15003MPS 120V180 3200 DU NSC 20/02 Q1013 NOSIG
ZWSH 271100Z 16003MPS 130V200 3200 DU NSC 21/02 Q1013 NOSIG
ZWSH 271000Z 17003MPS 110V230 2800 DU NSC 21/02 Q1012 NOSIG
ZWSH 270900Z 17003MPS 140V200 2800 DU BKN040 19/02 Q1013 NOSIG
ZWSH 270800Z 13003MPS 110V170 2800 DU BKN040 20/01 Q1013 NOSIG
ZWSH 270700Z VRB01MPS 4800 DU BKN040 20/M00 Q1014 NOSIG
ZWSH 270600Z VRB02MPS 4200 DU FEW033CB BKN040 17/02 Q1014 NOSIG
ZWSH 270500Z 10003MPS 030V140 2200 -SHRA DU FEW033CB BKN040 16/04 Q1015 NOSIG
ZWSH 270400Z 34002MPS 260V350 2200 DU BKN040 18/M01 Q1015 NOSIG
ZWSH 270300Z 12002MPS 090V150 2500 DU BKN040 17/M01 Q1015 NOSIG
ZWSH 270200Z VRB01MPS 2800 DU SCT040 17/00 Q1014 NOSIG
ZWSH 270100Z 06003MPS 4000 DU SCT040 17/M00 Q1013 NOSIG
ZWSH 270000Z 06005MPS 4500 DU SCT040 17/M00 Q1012 NOSIG
ZWSH 262300Z 03003MPS 4500 DU SCT040 18/M00 Q1012 NOSIG
ZWSH 262200Z 02002MPS 010V110 4500 DU SCT040 18/00 Q1011 NOSIG
ZWSH 262100Z 05004MPS 5000 DU SCT040 18/01 Q1010 NOSIG
ZWSH 262000Z 02005MPS 5000 DU SCT040 19/01 Q1010 NOSIG
ZWSH 261900Z AUTO 04004MPS 6000 // ////// 19/01 Q1010
ZWSH 261800Z AUTO VRB02MPS 9999 // ////// 20/M01 Q1010
ZWSH 261700Z AUTO VRB05MPS 9999 // ////// 22/M04 Q1009
ZWSH 261600Z AUTO VRB03MPS 7000 // ////// 22/M02 Q1009
ZWSH 261500Z 10002MPS 8000 BKN040 22/M03 Q1008 NOSIG
ZWSH 261400Z VRB02MPS 8000 BKN040 23/M02 Q1008 NOSIG
ZWSH 261300Z 00000MPS 9999 SCT040 24/M05 Q1007 NOSIG
ZWSH 261200Z 14002MPS 9999 FEW040 25/M04 Q1006 NOSIG
ZWSH 261100Z 13003MPS CAVOK 26/M05 Q1005 NOSIG
ZWSH 261000Z 12004MPS CAVOK 27/M04 Q1005 NOSIG